Time;durP1;ratioP1;P1;durP2;ratioP2;P2;SDS_P1;SDS_P2;PMS_P1;PMS_P2;Temp;Humidity;BMP_temperature;BMP_pressure;BME280_temperature;BME280_humidity;BME280_pressure;Samples;Min_cycle;Max_cycle;Signal;HPM_P1;HPM_P2
2021/04/03 00:01:08;;;;;;;1.97;1.81;;;;;;;19.38;42.85;101030.23;;;;-53
2021/04/03 00:04:08;;;;;;;1.90;1.80;;;;;;;19.37;42.86;101032.91;;;;-53
2021/04/03 00:07:08;;;;;;;1.95;1.81;;;;;;;19.36;42.81;101032.80;;;;-53
2021/04/03 00:10:08;;;;;;;1.94;1.79;;;;;;;19.34;42.81;101029.84;;;;-60
2021/04/03 00:13:08;;;;;;;2.05;1.81;;;;;;;19.34;42.88;101026.59;;;;-54
2021/04/03 00:16:09;;;;;;;2.08;1.80;;;;;;;19.32;42.87;101029.97;;;;-53
2021/04/03 00:19:08;;;;;;;2.10;1.90;;;;;;;19.31;42.92;101035.66;;;;-53
2021/04/03 00:22:08;;;;;;;2.02;1.87;;;;;;;19.30;42.89;101035.58;;;;-53
2021/04/03 00:25:08;;;;;;;2.17;1.97;;;;;;;19.30;42.88;101031.56;;;;-53
2021/04/03 00:28:08;;;;;;;2.26;1.80;;;;;;;19.29;42.94;101030.02;;;;-53
2021/04/03 00:31:08;;;;;;;2.16;1.83;;;;;;;19.27;42.87;101031.85;;;;-59
2021/04/03 00:34:08;;;;;;;1.96;1.81;;;;;;;19.26;42.90;101025.44;;;;-57
2021/04/03 00:37:08;;;;;;;2.42;1.90;;;;;;;19.25;42.88;101029.87;;;;-52
2021/04/03 00:40:08;;;;;;;2.10;1.90;;;;;;;19.24;42.94;101026.94;;;;-51
2021/04/03 00:43:08;;;;;;;1.79;1.69;;;;;;;19.24;42.92;101024.02;;;;-51
2021/04/03 00:46:08;;;;;;;1.85;1.70;;;;;;;19.23;42.89;101024.47;;;;-53
2021/04/03 00:49:08;;;;;;;2.07;1.75;;;;;;;19.22;42.94;101023.49;;;;-53
2021/04/03 00:52:08;;;;;;;2.68;1.79;;;;;;;19.22;42.92;101022.52;;;;-53
2021/04/03 00:55:08;;;;;;;2.05;1.70;;;;;;;19.20;42.93;101020.94;;;;-55
2021/04/03 00:58:08;;;;;;;2.09;1.69;;;;;;;19.19;42.91;101022.45;;;;-55
2021/04/03 01:01:08;;;;;;;1.82;1.70;;;;;;;19.18;42.90;101014.66;;;;-53
2021/04/03 01:04:08;;;;;;;1.75;1.65;;;;;;;19.18;42.88;101011.80;;;;-59
2021/04/03 01:07:08;;;;;;;1.83;1.71;;;;;;;19.17;42.96;101004.70;;;;-59
2021/04/03 01:10:08;;;;;;;1.93;1.79;;;;;;;19.16;42.94;101004.46;;;;-55
2021/04/03 01:13:08;;;;;;;1.82;1.67;;;;;;;19.15;42.94;101008.33;;;;-54
2021/04/03 01:16:08;;;;;;;2.29;1.77;;;;;;;19.13;42.95;101000.17;;;;-55
2021/04/03 01:19:08;;;;;;;2.15;1.67;;;;;;;19.13;42.91;101005.38;;;;-57
2021/04/03 01:22:08;;;;;;;1.70;1.60;;;;;;;19.12;42.89;101009.11;;;;-53
2021/04/03 01:25:08;;;;;;;2.14;1.80;;;;;;;19.11;42.87;101006.06;;;;-57
2021/04/03 01:28:08;;;;;;;2.27;1.76;;;;;;;19.11;42.94;101009.48;;;;-53
2021/04/03 01:31:08;;;;;;;1.95;1.75;;;;;;;19.10;42.94;101007.94;;;;-54
2021/04/03 01:34:08;;;;;;;2.21;1.79;;;;;;;19.10;42.91;101006.55;;;;-54
2021/04/03 01:37:08;;;;;;;3.31;1.79;;;;;;;19.08;42.96;101000.10;;;;-55
2021/04/03 01:40:08;;;;;;;1.85;1.70;;;;;;;19.08;42.89;101006.36;;;;-53
2021/04/03 01:43:08;;;;;;;2.53;1.90;;;;;;;19.06;42.97;101000.72;;;;-53
2021/04/03 01:46:08;;;;;;;1.91;1.71;;;;;;;19.06;42.98;100999.34;;;;-53
2021/04/03 01:49:09;;;;;;;2.37;1.73;;;;;;;19.05;42.97;100995.48;;;;-55
2021/04/03 01:52:08;;;;;;;1.85;1.68;;;;;;;19.04;42.93;100996.70;;;;-55
2021/04/03 01:55:08;;;;;;;1.70;1.60;;;;;;;19.04;42.97;100991.09;;;;-55
2021/04/03 01:58:08;;;;;;;1.81;1.59;;;;;;;19.03;42.95;100989.63;;;;-55
2021/04/03 02:01:08;;;;;;;2.01;1.81;;;;;;;19.03;42.94;100985.58;;;;-53
2021/04/03 02:04:08;;;;;;;1.87;1.70;;;;;;;19.02;42.96;100989.84;;;;-54
2021/04/03 02:07:08;;;;;;;1.79;1.62;;;;;;;19.01;43.01;100985.75;;;;-53
2021/04/03 02:10:08;;;;;;;2.04;1.65;;;;;;;19.01;42.94;100987.21;;;;-53
2021/04/03 02:13:08;;;;;;;1.76;1.61;;;;;;;19.00;42.97;100987.62;;;;-53
2021/04/03 02:16:08;;;;;;;1.86;1.68;;;;;;;18.98;42.97;100983.20;;;;-53
2021/04/03 02:19:08;;;;;;;1.99;1.73;;;;;;;18.97;42.99;100989.20;;;;-53
2021/04/03 02:22:08;;;;;;;1.79;1.61;;;;;;;18.97;43.03;100993.42;;;;-53
2021/04/03 02:25:08;;;;;;;2.49;1.73;;;;;;;18.96;43.00;101000.63;;;;-55
2021/04/03 02:28:08;;;;;;;1.99;1.74;;;;;;;18.95;42.97;100997.30;;;;-54
2021/04/03 02:31:08;;;;;;;2.24;1.73;;;;;;;18.95;42.97;100999.89;;;;-59
2021/04/03 02:34:08;;;;;;;1.78;1.63;;;;;;;18.94;43.02;100997.17;;;;-58
2021/04/03 02:37:08;;;;;;;1.79;1.63;;;;;;;18.93;42.99;100999.05;;;;-59
2021/04/03 02:40:08;;;;;;;1.79;1.69;;;;;;;18.93;43.01;101000.51;;;;-53
2021/04/03 02:43:08;;;;;;;2.21;1.79;;;;;;;18.92;43.05;101002.34;;;;-53
2021/04/03 02:46:08;;;;;;;1.91;1.73;;;;;;;18.92;43.02;101003.07;;;;-55
2021/04/03 02:49:08;;;;;;;2.32;1.60;;;;;;;18.91;43.06;101003.56;;;;-55
2021/04/03 02:52:08;;;;;;;1.75;1.63;;;;;;;18.90;43.03;101001.01;;;;-57
2021/04/03 02:55:08;;;;;;;1.87;1.70;;;;;;;18.90;43.02;101002.71;;;;-55
2021/04/03 02:58:08;;;;;;;1.81;1.65;;;;;;;18.89;43.01;101005.63;;;;-51
2021/04/03 03:01:08;;;;;;;1.71;1.60;;;;;;;18.88;43.04;101004.30;;;;-58
2021/04/03 03:04:08;;;;;;;1.66;1.56;;;;;;;18.87;43.01;101009.98;;;;-53
2021/04/03 03:07:08;;;;;;;1.81;1.71;;;;;;;18.87;43.03;101010.14;;;;-53
2021/04/03 03:10:08;;;;;;;2.23;1.75;;;;;;;18.85;43.06;101005.88;;;;-59
2021/04/03 03:13:08;;;;;;;1.92;1.70;;;;;;;18.85;43.05;101006.62;;;;-52
2021/04/03 03:16:08;;;;;;;1.87;1.69;;;;;;;18.85;43.05;101007.59;;;;-51
2021/04/03 03:19:08;;;;;;;1.79;1.60;;;;;;;18.84;43.06;101006.50;;;;-53
2021/04/03 03:22:08;;;;;;;1.91;1.65;;;;;;;18.83;43.06;101004.95;;;;-51
2021/04/03 03:25:08;;;;;;;2.01;1.72;;;;;;;18.82;43.05;101000.33;;;;-53
2021/04/03 03:28:08;;;;;;;1.73;1.63;;;;;;;18.81;43.07;101003.37;;;;-52
2021/04/03 03:31:08;;;;;;;2.27;1.70;;;;;;;18.81;43.10;101009.79;;;;-55
2021/04/03 03:34:08;;;;;;;2.04;1.60;;;;;;;18.81;43.07;101005.81;;;;-54
2021/04/03 03:37:08;;;;;;;1.85;1.59;;;;;;;18.81;43.06;101001.99;;;;-55
2021/04/03 03:40:08;;;;;;;2.05;1.76;;;;;;;18.79;43.09;101002.77;;;;-54
2021/04/03 03:43:15;;;;;;;1.75;1.60;;;;;;;18.79;43.08;101004.48;;;;-54
2021/04/03 03:46:08;;;;;;;1.91;1.60;;;;;;;18.78;43.04;101003.42;;;;-55
2021/04/03 03:49:08;;;;;;;1.74;1.61;;;;;;;18.77;43.05;100999.94;;;;-58
2021/04/03 03:52:08;;;;;;;1.82;1.60;;;;;;;18.77;43.08;101005.47;;;;-53
2021/04/03 03:55:08;;;;;;;2.19;1.69;;;;;;;18.76;43.04;101006.68;;;;-53
2021/04/03 03:58:08;;;;;;;1.73;1.60;;;;;;;18.75;43.06;101002.02;;;;-59
2021/04/03 04:01:08;;;;;;;2.18;1.70;;;;;;;18.76;43.06;101009.69;;;;-59
2021/04/03 04:04:08;;;;;;;2.36;1.83;;;;;;;18.75;43.06;101008.67;;;;-57
2021/04/03 04:07:08;;;;;;;1.89;1.60;;;;;;;18.75;43.07;101013.79;;;;-57
2021/04/03 04:10:09;;;;;;;1.66;1.51;;;;;;;18.74;43.03;101011.27;;;;-50
2021/04/03 04:13:08;;;;;;;1.81;1.71;;;;;;;18.73;43.06;101010.27;;;;-52
2021/04/03 04:16:08;;;;;;;1.91;1.62;;;;;;;18.72;43.08;101010.09;;;;-51
2021/04/03 04:19:08;;;;;;;1.83;1.55;;;;;;;18.72;43.08;101014.40;;;;-52
2021/04/03 04:22:08;;;;;;;2.01;1.55;;;;;;;18.71;43.08;101014.45;;;;-51
2021/04/03 04:25:08;;;;;;;2.04;1.60;;;;;;;18.71;43.04;101015.98;;;;-52
2021/04/03 04:28:08;;;;;;;1.98;1.73;;;;;;;18.70;43.10;101015.09;;;;-51
2021/04/03 04:31:08;;;;;;;1.70;1.60;;;;;;;18.69;43.06;101017.41;;;;-52
2021/04/03 04:34:08;;;;;;;1.70;1.60;;;;;;;18.69;43.09;101024.39;;;;-51
2021/04/03 04:37:08;;;;;;;1.87;1.55;;;;;;;18.68;43.07;101029.27;;;;-51
2021/04/03 04:40:08;;;;;;;2.01;1.64;;;;;;;18.68;43.07;101033.73;;;;-51
2021/04/03 04:43:08;;;;;;;1.85;1.60;;;;;;;18.67;43.06;101041.73;;;;-51
2021/04/03 04:46:08;;;;;;;1.83;1.70;;;;;;;18.67;43.09;101044.98;;;;-53
2021/04/03 04:49:08;;;;;;;1.73;1.63;;;;;;;18.67;43.11;101044.57;;;;-53
2021/04/03 04:52:08;;;;;;;1.79;1.53;;;;;;;18.65;43.10;101047.53;;;;-53
2021/04/03 04:55:08;;;;;;;1.82;1.52;;;;;;;18.66;43.08;101044.89;;;;-51
2021/04/03 04:58:08;;;;;;;2.03;1.66;;;;;;;18.66;43.08;101049.59;;;;-53
2021/04/03 05:01:08;;;;;;;1.76;1.62;;;;;;;18.66;43.10;101052.52;;;;-54
2021/04/03 05:04:08;;;;;;;1.63;1.53;;;;;;;18.64;43.09;101049.89;;;;-51
2021/04/03 05:07:08;;;;;;;1.65;1.50;;;;;;;18.63;43.16;101043.60;;;;-51
2021/04/03 05:10:08;;;;;;;1.65;1.53;;;;;;;18.63;43.12;101045.47;;;;-52
2021/04/03 05:13:08;;;;;;;1.61;1.51;;;;;;;18.63;43.12;101050.50;;;;-54
2021/04/03 05:16:08;;;;;;;1.60;1.50;;;;;;;18.63;43.14;101059.91;;;;-53
2021/04/03 05:19:08;;;;;;;1.51;1.41;;;;;;;18.63;43.12;101067.63;;;;-53
2021/04/03 05:22:08;;;;;;;1.63;1.53;;;;;;;18.63;43.14;101076.31;;;;-53
2021/04/03 05:25:08;;;;;;;1.59;1.49;;;;;;;18.64;43.18;101082.44;;;;-53
2021/04/03 05:28:08;;;;;;;1.87;1.55;;;;;;;18.66;43.18;101086.86;;;;-58
2021/04/03 05:31:08;;;;;;;1.63;1.53;;;;;;;18.68;43.19;101091.86;;;;-57
2021/04/03 05:34:08;;;;;;;2.32;1.50;;;;;;;18.70;43.10;101097.50;;;;-54
2021/04/03 05:37:08;;;;;;;1.60;1.50;;;;;;;18.72;43.18;101100.46;;;;-52
2021/04/03 05:40:08;;;;;;;1.50;1.40;;;;;;;18.75;43.19;101102.62;;;;-53
2021/04/03 05:43:08;;;;;;;1.94;1.59;;;;;;;18.79;43.15;101099.16;;;;-51
2021/04/03 05:46:08;;;;;;;1.61;1.47;;;;;;;18.83;43.16;101103.38;;;;-53
2021/04/03 05:49:08;;;;;;;1.43;1.33;;;;;;;18.86;43.19;101107.56;;;;-53
2021/04/03 05:52:08;;;;;;;1.57;1.47;;;;;;;18.90;43.23;101107.16;;;;-53
2021/04/03 05:55:08;;;;;;;1.55;1.45;;;;;;;18.91;43.22;101107.27;;;;-53
2021/04/03 05:58:08;;;;;;;1.60;1.50;;;;;;;18.94;43.28;101106.09;;;;-55
2021/04/03 06:01:08;;;;;;;1.61;1.51;;;;;;;18.96;43.25;101108.98;;;;-55
2021/04/03 06:04:08;;;;;;;2.11;1.55;;;;;;;18.98;43.28;101114.87;;;;-54
2021/04/03 06:07:08;;;;;;;2.02;1.47;;;;;;;19.00;43.28;101118.23;;;;-54
2021/04/03 06:10:08;;;;;;;1.95;1.59;;;;;;;19.02;43.32;101115.59;;;;-58
2021/04/03 06:13:08;;;;;;;1.50;1.40;;;;;;;19.03;43.30;101119.28;;;;-59
2021/04/03 06:16:08;;;;;;;1.61;1.44;;;;;;;19.04;43.32;101120.50;;;;-59
2021/04/03 06:19:08;;;;;;;1.91;1.50;;;;;;;19.05;43.30;101110.30;;;;-54
2021/04/03 06:22:08;;;;;;;2.06;1.60;;;;;;;19.06;43.24;101112.50;;;;-53
2021/04/03 06:25:08;;;;;;;1.51;1.40;;;;;;;19.06;43.25;101118.27;;;;-51
2021/04/03 06:28:08;;;;;;;1.50;1.40;;;;;;;19.06;43.27;101118.92;;;;-51
2021/04/03 06:31:08;;;;;;;1.50;1.40;;;;;;;19.07;43.24;101120.55;;;;-51
2021/04/03 06:34:08;;;;;;;1.40;1.30;;;;;;;19.07;43.22;101117.13;;;;-53
2021/04/03 06:37:08;;;;;;;1.41;1.31;;;;;;;19.07;43.21;101126.51;;;;-54
2021/04/03 06:40:08;;;;;;;1.50;1.40;;;;;;;19.08;43.22;101125.45;;;;-53
2021/04/03 06:43:08;;;;;;;1.50;1.40;;;;;;;19.08;43.16;101128.22;;;;-54
2021/04/03 06:46:08;;;;;;;1.44;1.33;;;;;;;19.07;43.17;101122.82;;;;-54
2021/04/03 06:49:08;;;;;;;1.57;1.47;;;;;;;19.08;43.15;101127.81;;;;-53
2021/04/03 06:52:08;;;;;;;1.48;1.38;;;;;;;19.09;43.15;101132.36;;;;-53
2021/04/03 06:55:08;;;;;;;1.63;1.31;;;;;;;19.08;43.17;101134.72;;;;-53
2021/04/03 06:58:08;;;;;;;1.40;1.30;;;;;;;19.08;43.11;101142.68;;;;-54
2021/04/03 07:01:08;;;;;;;6.89;2.85;;;;;;;18.58;39.82;101148.31;;;;-62
2021/04/03 07:04:08;;;;;;;5.49;2.59;;;;;;;18.72;41.02;101154.62;;;;-62
2021/04/03 07:07:08;;;;;;;3.85;2.20;;;;;;;18.78;41.44;101154.47;;;;-62
2021/04/03 07:10:08;;;;;;;3.39;2.05;;;;;;;18.82;41.46;101154.50;;;;-62
2021/04/03 07:13:08;;;;;;;3.02;2.00;;;;;;;18.85;41.63;101156.94;;;;-63
2021/04/03 07:16:08;;;;;;;2.50;1.90;;;;;;;18.87;41.83;101158.36;;;;-62
2021/04/03 07:19:08;;;;;;;2.33;1.79;;;;;;;18.88;41.93;101163.80;;;;-62
2021/04/03 07:22:08;;;;;;;1.75;1.65;;;;;;;18.88;42.03;101161.89;;;;-63
2021/04/03 07:25:08;;;;;;;3.13;1.71;;;;;;;18.90;42.11;101166.84;;;;-62
2021/04/03 07:28:08;;;;;;;1.95;1.63;;;;;;;18.91;42.22;101170.78;;;;-62
2021/04/03 07:31:08;;;;;;;2.46;1.65;;;;;;;18.91;42.25;101174.77;;;;-62
2021/04/03 07:34:08;;;;;;;2.11;1.60;;;;;;;18.92;42.33;101178.34;;;;-62
2021/04/03 07:37:08;;;;;;;1.71;1.46;;;;;;;18.90;42.30;101178.79;;;;-52
2021/04/03 07:40:08;;;;;;;2.58;1.67;;;;;;;18.93;42.74;101177.97;;;;-53
2021/04/03 07:43:08;;;;;;;3.23;1.61;;;;;;;18.95;42.98;101176.31;;;;-58
2021/04/03 07:46:08;;;;;;;2.51;1.56;;;;;;;18.98;43.09;101180.33;;;;-59
2021/04/03 07:49:08;;;;;;;4.56;1.62;;;;;;;19.02;43.31;101187.40;;;;-54
2021/04/03 07:52:08;;;;;;;3.17;1.58;;;;;;;19.08;43.72;101185.73;;;;-48
2021/04/03 07:55:08;;;;;;;2.43;1.70;;;;;;;19.13;43.81;101187.16;;;;-59
2021/04/03 07:58:08;;;;;;;3.53;1.63;;;;;;;19.16;43.10;101187.84;;;;-59
2021/04/03 08:01:08;;;;;;;2.00;1.59;;;;;;;19.19;43.04;101191.79;;;;-61
2021/04/03 08:04:08;;;;;;;2.39;1.57;;;;;;;19.21;42.94;101201.33;;;;-61
2021/04/03 08:07:08;;;;;;;3.17;1.56;;;;;;;19.23;42.89;101200.88;;;;-59
2021/04/03 08:10:08;;;;;;;2.30;1.50;;;;;;;19.25;42.88;101206.05;;;;-59
2021/04/03 08:13:08;;;;;;;1.77;1.41;;;;;;;19.27;42.88;101213.16;;;;-58
2021/04/03 08:16:08;;;;;;;1.50;1.40;;;;;;;19.29;42.86;101215.88;;;;-59
2021/04/03 08:19:08;;;;;;;1.51;1.40;;;;;;;19.32;42.83;101219.41;;;;-58
2021/04/03 08:22:08;;;;;;;3.19;1.65;;;;;;;19.36;42.63;101219.73;;;;-59
2021/04/03 08:25:08;;;;;;;1.86;1.41;;;;;;;19.38;42.67;101224.89;;;;-59
2021/04/03 08:28:08;;;;;;;2.34;1.63;;;;;;;19.42;42.73;101229.44;;;;-59
2021/04/03 08:31:08;;;;;;;3.07;1.40;;;;;;;19.44;42.73;101231.44;;;;-61
2021/04/03 08:34:08;;;;;;;4.45;1.53;;;;;;;19.47;42.67;101232.41;;;;-61
2021/04/03 08:37:08;;;;;;;1.41;1.30;;;;;;;19.50;42.69;101231.14;;;;-61
2021/04/03 08:40:08;;;;;;;1.81;1.50;;;;;;;19.53;42.67;101232.81;;;;-61
2021/04/03 08:43:08;;;;;;;3.75;1.53;;;;;;;19.62;42.65;101237.63;;;;-56
2021/04/03 08:46:08;;;;;;;3.95;1.51;;;;;;;19.68;42.89;101236.59;;;;-55
2021/04/03 08:49:08;;;;;;;5.83;1.68;;;;;;;19.73;43.01;101231.42;;;;-61
2021/04/03 08:52:08;;;;;;;3.19;1.49;;;;;;;19.75;43.18;101242.11;;;;-63
2021/04/03 08:55:08;;;;;;;2.99;1.41;;;;;;;19.82;43.05;101241.25;;;;-59
2021/04/03 08:58:08;;;;;;;1.58;1.40;;;;;;;19.85;43.07;101235.62;;;;-59
2021/04/03 09:01:08;;;;;;;1.64;1.41;;;;;;;19.88;42.75;101232.52;;;;-52
2021/04/03 09:04:08;;;;;;;2.97;1.49;;;;;;;19.91;42.75;101239.88;;;;-61
2021/04/03 09:07:08;;;;;;;1.65;1.24;;;;;;;19.89;42.62;101236.91;;;;-61
2021/04/03 09:10:08;;;;;;;8.93;1.49;;;;;;;19.89;42.62;101245.62;;;;-58
2021/04/03 09:13:08;;;;;;;1.79;1.30;;;;;;;19.89;42.61;101243.26;;;;-57
2021/04/03 09:16:08;;;;;;;2.13;1.31;;;;;;;19.91;42.57;101241.17;;;;-63
2021/04/03 09:19:08;;;;;;;2.47;1.30;;;;;;;19.93;42.66;101240.08;;;;-48
2021/04/03 09:22:08;;;;;;;2.55;1.48;;;;;;;19.94;42.33;101242.27;;;;-57
2021/04/03 09:25:08;;;;;;;1.44;1.33;;;;;;;19.94;42.22;101246.75;;;;-57
2021/04/03 09:28:10;;;;;;;2.42;1.33;;;;;;;19.94;42.34;101245.93;;;;-53
2021/04/03 09:31:08;;;;;;;2.81;1.38;;;;;;;19.97;42.37;101244.94;;;;-58
2021/04/03 09:34:08;;;;;;;3.37;1.40;;;;;;;20.00;42.39;101245.72;;;;-61
2021/04/03 09:37:08;;;;;;;5.65;1.63;;;;;;;20.00;42.12;101247.34;;;;-51
2021/04/03 09:40:08;;;;;;;3.24;1.40;;;;;;;20.00;42.20;101251.08;;;;-52
2021/04/03 09:43:08;;;;;;;2.37;1.34;;;;;;;20.00;42.28;101247.02;;;;-54
2021/04/03 09:46:08;;;;;;;2.20;1.39;;;;;;;19.99;42.31;101249.20;;;;-53
2021/04/03 09:49:08;;;;;;;2.93;1.40;;;;;;;20.05;42.28;101249.80;;;;-61
2021/04/03 09:52:08;;;;;;;2.51;1.30;;;;;;;20.10;42.34;101251.41;;;;-64
2021/04/03 09:55:08;;;;;;;1.87;1.50;;;;;;;20.12;42.38;101245.42;;;;-53
2021/04/03 09:58:08;;;;;;;2.34;1.30;;;;;;;20.16;42.56;101247.86;;;;-52
2021/04/03 10:01:08;;;;;;;1.55;1.21;;;;;;;20.20;42.61;101248.08;;;;-60
2021/04/03 10:04:08;;;;;;;1.63;1.32;;;;;;;20.24;42.74;101246.60;;;;-54
2021/04/03 10:07:08;;;;;;;2.78;1.35;;;;;;;20.28;42.66;101246.34;;;;-54
2021/04/03 10:10:08;;;;;;;2.77;1.47;;;;;;;20.29;42.52;101248.16;;;;-56
2021/04/03 10:13:08;;;;;;;1.31;1.20;;;;;;;20.31;42.34;101244.42;;;;-54
2021/04/03 10:16:08;;;;;;;2.02;1.39;;;;;;;20.30;42.30;101242.05;;;;-59
2021/04/03 10:19:08;;;;;;;2.55;1.48;;;;;;;20.28;42.29;101244.39;;;;-54
2021/04/03 10:22:08;;;;;;;3.58;1.28;;;;;;;20.28;42.23;101240.40;;;;-60
2021/04/03 10:25:08;;;;;;;2.55;1.33;;;;;;;20.27;42.22;101236.41;;;;-60
2021/04/03 10:28:08;;;;;;;1.75;1.39;;;;;;;20.28;42.22;101239.02;;;;-60
2021/04/03 10:31:08;;;;;;;2.06;1.39;;;;;;;20.27;42.22;101236.58;;;;-59
2021/04/03 10:34:08;;;;;;;1.54;1.30;;;;;;;20.28;42.19;101235.44;;;;-59
2021/04/03 10:37:08;;;;;;;2.01;1.29;;;;;;;20.29;42.18;101235.84;;;;-54
2021/04/03 10:40:08;;;;;;;1.33;1.23;;;;;;;20.29;42.19;101245.28;;;;-59
2021/04/03 10:43:08;;;;;;;1.85;1.32;;;;;;;20.33;42.08;101242.91;;;;-56
2021/04/03 10:46:08;;;;;;;2.27;1.32;;;;;;;20.34;42.02;101239.68;;;;-56
2021/04/03 10:49:08;;;;;;;1.99;1.30;;;;;;;20.32;42.09;101230.37;;;;-55
2021/04/03 10:52:08;;;;;;;2.81;1.39;;;;;;;20.33;42.03;101233.79;;;;-57
2021/04/03 10:55:08;;;;;;;1.57;1.29;;;;;;;20.34;41.99;101239.44;;;;-57
2021/04/03 10:58:08;;;;;;;1.30;1.20;;;;;;;20.33;42.04;101234.36;;;;-57
2021/04/03 11:01:08;;;;;;;1.37;1.24;;;;;;;20.33;42.05;101234.44;;;;-54
2021/04/03 11:04:08;;;;;;;3.97;1.19;;;;;;;20.35;42.02;101226.73;;;;-54
2021/04/03 11:07:08;;;;;;;1.85;1.35;;;;;;;20.35;42.06;101224.30;;;;-55
2021/04/03 11:10:08;;;;;;;1.37;1.27;;;;;;;20.37;41.98;101220.41;;;;-54
2021/04/03 11:13:08;;;;;;;1.49;1.37;;;;;;;20.39;41.91;101222.64;;;;-55
2021/04/03 11:16:08;;;;;;;1.39;1.29;;;;;;;20.40;41.90;101220.45;;;;-55
2021/04/03 11:19:08;;;;;;;1.45;1.35;;;;;;;20.41;41.81;101212.17;;;;-54
2021/04/03 11:22:08;;;;;;;1.36;1.26;;;;;;;20.43;41.84;101213.67;;;;-56
2021/04/03 11:25:08;;;;;;;2.72;1.25;;;;;;;20.44;41.76;101209.30;;;;-57
2021/04/03 11:28:08;;;;;;;2.01;1.20;;;;;;;20.44;41.81;101204.58;;;;-57
2021/04/03 11:31:08;;;;;;;1.28;1.18;;;;;;;20.45;41.79;101202.30;;;;-56
2021/04/03 11:34:08;;;;;;;1.53;1.26;;;;;;;20.45;41.82;101200.02;;;;-54
2021/04/03 11:37:08;;;;;;;2.31;1.20;;;;;;;20.46;41.77;101199.37;;;;-57
2021/04/03 11:40:08;;;;;;;1.87;1.20;;;;;;;20.47;41.81;101198.67;;;;-54
2021/04/03 11:43:08;;;;;;;1.28;1.18;;;;;;;20.46;41.85;101194.34;;;;-54
2021/04/03 11:46:08;;;;;;;1.33;1.22;;;;;;;20.46;41.84;101193.86;;;;-55
2021/04/03 11:49:08;;;;;;;1.91;1.17;;;;;;;20.48;41.82;101192.67;;;;-56
2021/04/03 11:52:08;;;;;;;1.31;1.17;;;;;;;20.49;41.74;101190.39;;;;-56
2021/04/03 11:55:08;;;;;;;1.30;1.20;;;;;;;20.50;41.77;101188.14;;;;-56
2021/04/03 11:58:08;;;;;;;1.33;1.23;;;;;;;20.51;41.71;101182.36;;;;-56
2021/04/03 12:01:08;;;;;;;1.34;1.24;;;;;;;20.51;41.79;101176.41;;;;-54
2021/04/03 12:04:08;;;;;;;1.37;1.13;;;;;;;20.53;41.70;101174.48;;;;-54
2021/04/03 12:07:08;;;;;;;1.69;1.20;;;;;;;20.53;41.75;101171.39;;;;-56
2021/04/03 12:10:08;;;;;;;1.29;1.19;;;;;;;20.54;41.73;101169.52;;;;-56
2021/04/03 12:13:08;;;;;;;2.08;1.25;;;;;;;20.55;41.69;101165.31;;;;-56
2021/04/03 12:16:08;;;;;;;1.82;1.30;;;;;;;20.55;41.73;101164.01;;;;-54
2021/04/03 12:19:08;;;;;;;1.14;1.10;;;;;;;20.55;41.75;101162.87;;;;-54
2021/04/03 12:22:08;;;;;;;1.30;1.20;;;;;;;20.56;41.62;101157.58;;;;-54
2021/04/03 12:25:08;;;;;;;1.36;1.26;;;;;;;20.57;41.72;101157.28;;;;-54
2021/04/03 12:28:08;;;;;;;1.43;1.23;;;;;;;20.57;41.67;101152.95;;;;-54
2021/04/03 12:31:08;;;;;;;4.32;1.27;;;;;;;20.59;41.93;101146.34;;;;-59
2021/04/03 12:34:08;;;;;;;1.83;1.31;;;;;;;20.62;42.20;101145.06;;;;-54
2021/04/03 12:37:08;;;;;;;2.03;1.19;;;;;;;20.66;42.27;101143.97;;;;-59
2021/04/03 12:40:08;;;;;;;2.91;1.23;;;;;;;20.68;42.25;101142.61;;;;-54
2021/04/03 12:43:08;;;;;;;1.61;1.31;;;;;;;20.69;42.25;101136.53;;;;-58
2021/04/03 12:46:08;;;;;;;1.69;1.25;;;;;;;20.72;42.06;101134.19;;;;-58
2021/04/03 12:49:08;;;;;;;1.40;1.30;;;;;;;20.73;41.91;101135.00;;;;-57
2021/04/03 12:52:08;;;;;;;2.60;1.17;;;;;;;20.72;42.06;101128.41;;;;-62
2021/04/03 12:55:08;;;;;;;2.71;1.54;;;;;;;20.72;41.66;101129.88;;;;-54
2021/04/03 12:58:08;;;;;;;1.73;1.30;;;;;;;20.71;41.59;101130.77;;;;-54
2021/04/03 13:01:08;;;;;;;1.93;1.41;;;;;;;20.71;41.65;101124.91;;;;-53
2021/04/03 13:04:08;;;;;;;2.57;1.30;;;;;;;20.72;41.60;101127.52;;;;-54
2021/04/03 13:07:08;;;;;;;3.12;1.40;;;;;;;20.71;41.55;101121.41;;;;-54
2021/04/03 13:10:08;;;;;;;1.90;1.42;;;;;;;20.69;41.63;101117.15;;;;-53
2021/04/03 13:13:08;;;;;;;1.31;1.21;;;;;;;20.68;41.59;101118.58;;;;-60
2021/04/03 13:16:08;;;;;;;1.37;1.20;;;;;;;20.67;41.64;101112.16;;;;-59
2021/04/03 13:19:08;;;;;;;3.86;1.60;;;;;;;20.67;41.23;101114.77;;;;-55
2021/04/03 13:22:08;;;;;;;1.50;1.29;;;;;;;20.68;41.45;101109.95;;;;-54
2021/04/03 13:25:08;;;;;;;2.09;1.37;;;;;;;20.69;41.71;101110.06;;;;-54
2021/04/03 13:28:08;;;;;;;1.67;1.37;;;;;;;20.69;41.80;101103.35;;;;-53
2021/04/03 13:31:08;;;;;;;1.36;1.21;;;;;;;20.72;41.91;101105.84;;;;-60
2021/04/03 13:34:08;;;;;;;1.87;1.28;;;;;;;20.75;41.96;101104.64;;;;-62
2021/04/03 13:37:08;;;;;;;5.21;1.30;;;;;;;20.75;41.82;101106.71;;;;-55
2021/04/03 13:40:08;;;;;;;1.91;1.33;;;;;;;20.75;41.62;101105.73;;;;-56
2021/04/03 13:43:08;;;;;;;4.05;1.33;;;;;;;20.74;41.64;101103.10;;;;-54
2021/04/03 13:46:08;;;;;;;2.33;1.39;;;;;;;20.76;41.74;101102.56;;;;-62
2021/04/03 13:49:08;;;;;;;2.27;1.31;;;;;;;20.77;41.77;101098.67;;;;-60
2021/04/03 13:52:08;;;;;;;1.75;1.39;;;;;;;20.79;41.75;101095.03;;;;-58
2021/04/03 13:55:08;;;;;;;1.81;1.29;;;;;;;20.81;41.73;101088.34;;;;-52
2021/04/03 13:58:08;;;;;;;2.16;1.37;;;;;;;20.83;41.97;101090.16;;;;-61
2021/04/03 14:01:08;;;;;;;2.70;1.21;;;;;;;20.84;42.00;101089.12;;;;-60
2021/04/03 14:04:08;;;;;;;1.87;1.29;;;;;;;20.82;41.94;101087.80;;;;-56
2021/04/03 14:07:08;;;;;;;2.34;1.27;;;;;;;20.85;42.14;101090.42;;;;-58
2021/04/03 14:10:08;;;;;;;5.71;1.27;;;;;;;20.83;41.71;101092.68;;;;-57
2021/04/03 14:13:08;;;;;;;1.64;1.17;;;;;;;20.82;41.67;101086.91;;;;-60
2021/04/03 14:16:08;;;;;;;1.75;1.30;;;;;;;20.80;41.65;101087.94;;;;-59
2021/04/03 14:19:08;;;;;;;1.43;1.31;;;;;;;20.79;41.64;101087.09;;;;-60
2021/04/03 14:22:08;;;;;;;2.37;1.33;;;;;;;20.78;41.59;101086.12;;;;-57
2021/04/03 14:25:08;;;;;;;1.86;1.30;;;;;;;20.78;41.57;101088.65;;;;-58
2021/04/03 14:28:08;;;;;;;2.03;1.23;;;;;;;20.78;41.58;101082.95;;;;-59
2021/04/03 14:31:08;;;;;;;1.39;1.27;;;;;;;20.77;41.52;101082.78;;;;-57
2021/04/03 14:34:08;;;;;;;1.41;1.25;;;;;;;20.77;41.50;101080.31;;;;-57
2021/04/03 14:37:08;;;;;;;1.30;1.20;;;;;;;20.76;41.50;101076.41;;;;-59
2021/04/03 14:40:08;;;;;;;1.45;1.14;;;;;;;20.76;41.48;101076.81;;;;-58
2021/04/03 14:43:08;;;;;;;2.18;1.30;;;;;;;20.75;41.52;101072.91;;;;-59
2021/04/03 14:46:08;;;;;;;1.67;1.27;;;;;;;20.77;41.55;101074.56;;;;-58
2021/04/03 14:49:08;;;;;;;2.91;1.31;;;;;;;20.77;41.70;101066.25;;;;-57
2021/04/03 14:52:08;;;;;;;1.46;1.24;;;;;;;20.80;41.82;101070.75;;;;-55
2021/04/03 14:55:09;;;;;;;1.29;1.19;;;;;;;20.81;41.94;101064.47;;;;-61
2021/04/03 14:58:08;;;;;;;1.63;1.37;;;;;;;20.83;41.99;101065.96;;;;-62
2021/04/03 15:01:08;;;;;;;2.71;1.17;;;;;;;20.85;42.02;101067.37;;;;-62
2021/04/03 15:04:08;;;;;;;1.35;1.25;;;;;;;20.89;42.07;101063.91;;;;-56
2021/04/03 15:07:08;;;;;;;1.55;1.18;;;;;;;20.90;42.00;101063.69;;;;-56
2021/04/03 15:10:08;;;;;;;2.08;1.15;;;;;;;20.92;42.03;101056.95;;;;-62
2021/04/03 15:13:08;;;;;;;5.52;1.72;;;;;;;20.86;39.58;101061.69;;;;-56
2021/04/03 15:16:08;;;;;;;11.18;1.81;;;;;;;20.82;39.94;101065.97;;;;-50
2021/04/03 15:19:08;;;;;;;3.55;1.63;;;;;;;20.81;39.61;101064.39;;;;-53
2021/04/03 15:22:08;;;;;;;5.62;1.45;;;;;;;20.81;39.97;101063.33;;;;-58
2021/04/03 15:25:08;;;;;;;4.47;1.51;;;;;;;20.85;40.34;101063.13;;;;-63
2021/04/03 15:28:08;;;;;;;3.09;1.38;;;;;;;20.88;40.49;101058.45;;;;-55
2021/04/03 15:31:08;;;;;;;3.98;1.47;;;;;;;20.92;40.71;101058.39;;;;-67
2021/04/03 15:34:08;;;;;;;3.23;1.34;;;;;;;20.94;40.96;101052.65;;;;-57
2021/04/03 15:37:08;;;;;;;2.94;1.35;;;;;;;20.93;40.97;101047.57;;;;-66
2021/04/03 15:40:08;;;;;;;2.06;1.44;;;;;;;20.95;41.14;101047.59;;;;-59
2021/04/03 15:43:09;;;;;;;1.88;1.25;;;;;;;20.97;41.24;101054.62;;;;-59
2021/04/03 15:46:08;;;;;;;2.46;1.47;;;;;;;20.98;41.30;101052.28;;;;-65
2021/04/03 15:49:08;;;;;;;1.85;1.30;;;;;;;20.99;41.45;101051.46;;;;-58
2021/04/03 15:52:08;;;;;;;2.15;1.35;;;;;;;21.00;41.46;101050.91;;;;-58
2021/04/03 15:55:08;;;;;;;1.85;1.32;;;;;;;21.00;41.62;101047.73;;;;-59
2021/04/03 15:58:08;;;;;;;1.57;1.30;;;;;;;21.01;41.53;101050.50;;;;-59
2021/04/03 16:01:08;;;;;;;2.63;1.30;;;;;;;21.02;41.63;101054.82;;;;-59
2021/04/03 16:04:08;;;;;;;2.49;1.30;;;;;;;21.03;41.68;101057.70;;;;-62
2021/04/03 16:07:08;;;;;;;1.58;1.27;;;;;;;21.03;41.71;101056.96;;;;-61
2021/04/03 16:10:09;;;;;;;2.84;1.27;;;;;;;21.04;41.71;101055.48;;;;-62
2021/04/03 16:13:08;;;;;;;1.91;1.33;;;;;;;21.05;41.78;101058.13;;;;-53
2021/04/03 16:16:08;;;;;;;2.35;1.31;;;;;;;21.05;41.81;101054.63;;;;-54
2021/04/03 16:19:08;;;;;;;3.07;1.30;;;;;;;21.07;41.82;101052.11;;;;-59
2021/04/03 16:22:08;;;;;;;2.01;1.43;;;;;;;21.06;41.58;101058.88;;;;-58
2021/04/03 16:25:08;;;;;;;1.93;1.19;;;;;;;21.04;41.36;101056.47;;;;-57
2021/04/03 16:28:08;;;;;;;1.49;1.30;;;;;;;21.02;41.27;101061.02;;;;-61
2021/04/03 16:31:08;;;;;;;1.65;1.33;;;;;;;21.01;41.24;101061.83;;;;-58
2021/04/03 16:34:08;;;;;;;1.45;1.20;;;;;;;20.98;41.18;101056.59;;;;-59
2021/04/03 16:37:08;;;;;;;1.97;1.25;;;;;;;20.98;41.13;101058.88;;;;-59
2021/04/03 16:40:08;;;;;;;1.76;1.21;;;;;;;20.97;41.12;101061.88;;;;-57
2021/04/03 16:43:08;;;;;;;1.35;1.20;;;;;;;20.96;41.09;101056.83;;;;-62